Time;durP1;ratioP1;P1;durP2;ratioP2;P2;SDS_P1;SDS_P2;PMS_P1;PMS_P2;Temp;Humidity;BMP_temperature;BMP_pressure;BME280_temperature;BME280_humidity;BME280_pressure;Samples;Min_cycle;Max_cycle;Signal;HPM_P1;HPM_P2
2023/09/30 00:00:08;;;;;;;0.05;0.05;;;;;;;12.88;100.00;97370.72;4989740;28;20054;-89
2023/09/30 00:02:56;;;;;;;0.10;0.10;;;;;;;12.89;100.00;97370.47;4984132;28;20046;-87
2023/09/30 00:05:42;;;;;;;0.00;0.00;;;;;;;12.87;100.00;97377.97;4987501;28;20041;-86
2023/09/30 00:08:27;;;;;;;0.10;0.10;;;;;;;12.87;100.00;97374.47;4987142;28;20057;-87
2023/09/30 00:11:17;;;;;;;0.10;0.10;;;;;;;12.93;100.00;97370.84;4987827;28;20042;-86
2023/09/30 00:14:04;;;;;;;0.10;0.10;;;;;;;12.86;100.00;97368.28;4987201;28;20046;-88
2023/09/30 00:16:50;;;;;;;0.10;0.10;;;;;;;12.87;100.00;97383.34;4940240;28;20164;-88
2023/09/30 00:19:37;;;;;;;0.10;0.10;;;;;;;12.90;100.00;97390.09;4964893;28;20113;-85
2023/09/30 00:22:22;;;;;;;0.10;0.10;;;;;;;12.89;100.00;97397.34;4963967;28;20069;-86
2023/09/30 00:25:08;;;;;;;0.10;0.10;;;;;;;12.62;100.00;97377.50;4948092;28;20868;-87
2023/09/30 00:27:54;;;;;;;0.10;0.10;;;;;;;12.60;100.00;97384.94;4963898;28;20061;-88
2023/09/30 00:30:40;;;;;;;0.10;0.10;;;;;;;12.59;100.00;97388.69;4963250;28;20573;-87
2023/09/30 00:33:26;;;;;;;0.10;0.10;;;;;;;12.60;100.00;97393.00;4962203;28;20573;-87
2023/09/30 00:36:12;;;;;;;0.10;0.10;;;;;;;12.76;100.00;97384.19;4963058;28;20144;-87
2023/09/30 00:38:58;;;;;;;0.10;0.10;;;;;;;12.77;100.00;97385.84;4957603;28;20042;-87
2023/09/30 00:41:44;;;;;;;0.10;0.10;;;;;;;12.78;100.00;97392.84;4969254;28;20050;-85
2023/09/30 00:44:30;;;;;;;0.10;0.10;;;;;;;12.75;100.00;97396.00;4967419;28;20034;-85
2023/09/30 00:47:16;;;;;;;0.10;0.10;;;;;;;12.65;100.00;97410.03;4955905;28;20041;-87
2023/09/30 00:50:04;;;;;;;0.10;0.10;;;;;;;12.69;100.00;97423.81;4988252;28;20050;-87
2023/09/30 00:52:50;;;;;;;0.10;0.10;;;;;;;12.62;100.00;97431.19;4996832;28;20054;-85
2023/09/30 00:55:37;;;;;;;0.10;0.10;;;;;;;12.66;100.00;97438.53;5001407;28;20034;-86
2023/09/30 00:58:28;;;;;;;0.10;0.10;;;;;;;12.77;100.00;97432.31;4991529;28;20041;-86
2023/09/30 01:01:15;;;;;;;0.10;0.10;;;;;;;12.80;100.00;97418.41;4990808;28;20050;-86
2023/09/30 01:04:01;;;;;;;0.08;0.08;;;;;;;12.83;100.00;97422.47;4990829;28;20034;-86
2023/09/30 01:06:47;;;;;;;0.10;0.10;;;;;;;12.84;100.00;97421.44;4977206;28;20057;-85
2023/09/30 01:09:33;;;;;;;0.10;0.10;;;;;;;12.73;100.00;97406.97;4975815;28;20077;-87
2023/09/30 01:12:19;;;;;;;0.10;0.10;;;;;;;12.35;100.00;97420.97;4990648;28;20816;-86
2023/09/30 01:15:08;;;;;;;0.00;0.00;;;;;;;12.53;100.00;97415.47;4989922;28;20081;-86
2023/09/30 01:17:55;;;;;;;0.10;0.10;;;;;;;12.36;100.00;97419.09;4989676;28;20042;-87
2023/09/30 01:20:41;;;;;;;0.10;0.10;;;;;;;12.38;100.00;97409.78;4989768;28;20109;-85
2023/09/30 01:23:28;;;;;;;0.10;0.10;;;;;;;12.32;100.00;97417.94;4991537;28;20322;-87
2023/09/30 01:26:14;;;;;;;0.00;0.00;;;;;;;12.25;100.00;97416.22;4990390;28;20046;-86
2023/09/30 01:29:00;;;;;;;0.10;0.10;;;;;;;12.25;100.00;97412.72;4991455;28;20173;-86
2023/09/30 01:31:49;;;;;;;0.10;0.10;;;;;;;12.18;100.00;97414.69;4989501;28;20181;-87
2023/09/30 01:34:36;;;;;;;0.00;0.00;;;;;;;12.28;100.00;97418.41;4992529;28;20060;-87
2023/09/30 01:37:22;;;;;;;0.10;0.10;;;;;;;12.28;100.00;97422.97;4990500;28;20128;-85
2023/09/30 01:40:11;;;;;;;0.10;0.10;;;;;;;12.33;100.00;97417.72;4989492;28;20042;-87
2023/09/30 01:42:57;;;;;;;0.10;0.10;;;;;;;12.47;100.00;97418.28;4979458;28;20045;-87
2023/09/30 01:45:44;;;;;;;0.10;0.10;;;;;;;12.50;100.00;97439.25;4952832;28;20870;-86
2023/09/30 01:48:30;;;;;;;0.10;0.10;;;;;;;12.55;100.00;97429.47;4992457;28;20099;-87
2023/09/30 01:51:15;;;;;;;0.10;0.10;;;;;;;12.59;100.00;97429.78;4991761;28;20046;-86
2023/09/30 01:54:01;;;;;;;0.10;0.10;;;;;;;12.57;100.00;97450.69;4964806;28;20694;-85
2023/09/30 01:56:47;;;;;;;0.10;0.10;;;;;;;12.08;100.00;97450.19;4990125;28;20050;-85
2023/09/30 01:59:33;;;;;;;0.10;0.10;;;;;;;11.96;100.00;97444.78;4989840;28;20053;-87
2023/09/30 02:02:19;;;;;;;0.10;0.10;;;;;;;12.07;100.00;97442.38;4976116;28;20081;-87
2023/09/30 02:05:08;;;;;;;0.10;0.10;;;;;;;11.93;100.00;97433.72;4990206;28;20042;-86
2023/09/30 02:07:54;;;;;;;0.10;0.10;;;;;;;12.15;100.00;97436.66;4976696;28;20052;-85
2023/09/30 02:10:41;;;;;;;0.10;0.10;;;;;;;12.23;100.00;97431.72;4990191;28;20053;-84
2023/09/30 02:13:27;;;;;;;0.10;0.10;;;;;;;11.91;100.00;97431.28;4989808;28;20045;-85
2023/09/30 02:16:14;;;;;;;0.10;0.10;;;;;;;12.18;100.00;97457.63;4964701;28;20061;-83
2023/09/30 02:19:00;;;;;;;0.10;0.10;;;;;;;12.34;100.00;97451.53;4991758;28;20092;-87
2023/09/30 02:21:46;;;;;;;0.10;0.10;;;;;;;12.19;100.00;97432.44;4966766;28;20053;-85
2023/09/30 02:24:33;;;;;;;0.10;0.10;;;;;;;12.28;100.00;97431.00;4993417;28;20045;-85
2023/09/30 02:27:20;;;;;;;0.10;0.10;;;;;;;12.34;100.00;97437.31;4982092;28;20443;-86
2023/09/30 02:30:06;;;;;;;0.10;0.10;;;;;;;12.41;100.00;97446.88;4973550;28;20148;-86
2023/09/30 02:32:52;;;;;;;0.10;0.10;;;;;;;12.47;100.00;97448.63;4957745;28;20713;-84
2023/09/30 02:35:41;;;;;;;0.00;0.00;;;;;;;12.43;100.00;97441.25;4975502;28;20068;-89
2023/09/30 02:38:28;;;;;;;0.10;0.10;;;;;;;12.27;100.00;97448.16;4973468;28;20604;-87
2023/09/30 02:41:18;;;;;;;0.10;0.10;;;;;;;12.18;100.00;97441.53;4972665;28;20049;-88
2023/09/30 02:44:04;;;;;;;0.00;0.00;;;;;;;12.37;100.00;97459.13;4953982;28;20046;-88
2023/09/30 02:46:50;;;;;;;0.10;0.10;;;;;;;12.45;100.00;97456.09;4937147;28;20611;-87
2023/09/30 02:49:37;;;;;;;0.10;0.10;;;;;;;12.41;100.00;97446.88;4973402;28;20050;-85
2023/09/30 02:52:27;;;;;;;0.10;0.10;;;;;;;12.40;100.00;97447.94;4972909;28;20046;-87
2023/09/30 02:55:12;;;;;;;0.10;0.10;;;;;;;12.46;100.00;97438.94;4970744;28;20500;-87
2023/09/30 02:58:00;;;;;;;0.10;0.10;;;;;;;12.31;100.00;97435.94;4973288;28;20232;-88
2023/09/30 03:00:49;;;;;;;0.10;0.10;;;;;;;12.35;100.00;97434.38;4972074;28;20054;-88
2023/09/30 03:03:35;;;;;;;0.10;0.10;;;;;;;12.48;100.00;97444.06;4972113;28;20920;-85
2023/09/30 03:06:21;;;;;;;0.10;0.10;;;;;;;12.51;100.00;97451.63;4973432;28;21133;-87
2023/09/30 03:09:09;;;;;;;0.10;0.10;;;;;;;12.51;100.00;97457.00;4969848;28;20046;-86
2023/09/30 03:11:56;;;;;;;0.10;0.10;;;;;;;12.52;100.00;97455.94;4971391;28;20055;-86
2023/09/30 03:14:42;;;;;;;0.10;0.10;;;;;;;12.35;100.00;97461.22;4972701;28;20104;-84
2023/09/30 03:17:28;;;;;;;0.10;0.10;;;;;;;12.35;100.00;97471.16;4972629;28;20046;-86
2023/09/30 03:20:18;;;;;;;0.10;0.10;;;;;;;12.44;100.00;97473.22;4970723;28;20113;-86
2023/09/30 03:23:04;;;;;;;0.10;0.10;;;;;;;12.48;100.00;97463.66;4958108;28;20129;-85
2023/09/30 03:25:50;;;;;;;0.10;0.10;;;;;;;12.45;100.00;97457.94;4971586;28;20623;-87
2023/09/30 03:28:38;;;;;;;0.05;0.05;;;;;;;12.52;100.00;97474.72;4988281;28;20085;-86
2023/09/30 03:31:23;;;;;;;0.10;0.10;;;;;;;12.54;100.00;97478.03;4990916;28;20484;-84
2023/09/30 03:34:09;;;;;;;0.10;0.10;;;;;;;12.57;100.00;97474.03;4986743;28;20545;-88
2023/09/30 03:36:58;;;;;;;0.10;0.10;;;;;;;12.50;100.00;97466.94;4993690;28;20905;-89
2023/09/30 03:39:44;;;;;;;0.10;0.10;;;;;;;12.52;100.00;97464.00;4988412;28;20063;-86
2023/09/30 03:42:30;;;;;;;0.10;0.10;;;;;;;12.49;100.00;97454.56;4987703;28;20050;-87
2023/09/30 03:45:16;;;;;;;0.10;0.10;;;;;;;12.50;100.00;97456.19;4963665;28;20117;-88
2023/09/30 03:48:02;;;;;;;0.10;0.10;;;;;;;12.50;100.00;97461.56;4973250;28;20093;-85
2023/09/30 03:50:48;;;;;;;0.10;0.10;;;;;;;12.46;100.00;97455.03;4991255;28;20050;-89
2023/09/30 03:53:34;;;;;;;0.10;0.10;;;;;;;12.52;100.00;97453.25;4994732;28;20044;-85
2023/09/30 03:56:22;;;;;;;0.10;0.10;;;;;;;12.53;100.00;97453.03;4995147;28;20061;-87
2023/09/30 03:59:08;;;;;;;0.10;0.10;;;;;;;12.52;100.00;97467.50;4993134;28;20437;-87
2023/09/30 04:01:54;;;;;;;0.10;0.10;;;;;;;12.41;100.00;97479.09;4991407;28;20073;-87
2023/09/30 04:04:40;;;;;;;0.10;0.10;;;;;;;12.39;100.00;97477.69;4990277;28;20563;-88
2023/09/30 04:07:27;;;;;;;0.10;0.10;;;;;;;12.30;100.00;97477.25;4985949;28;20804;-88
2023/09/30 04:10:13;;;;;;;0.10;0.10;;;;;;;12.31;100.00;97473.50;4988155;28;20038;-88
2023/09/30 04:12:58;;;;;;;0.10;0.10;;;;;;;12.36;100.00;97480.81;4989667;28;20136;-86
2023/09/30 04:15:46;;;;;;;0.10;0.10;;;;;;;12.32;100.00;97491.22;4989934;28;20084;-86
2023/09/30 04:18:32;;;;;;;0.20;0.20;;;;;;;12.26;100.00;97492.16;4989894;28;20045;-86
2023/09/30 04:21:20;;;;;;;0.10;0.10;;;;;;;12.26;100.00;97481.41;4989477;28;20045;-88
2023/09/30 04:24:06;;;;;;;0.10;0.10;;;;;;;11.94;100.00;97463.00;4987749;28;20590;-87
2023/09/30 04:26:57;;;;;;;0.68;0.40;;;;;;;11.95;100.00;97461.13;4989453;28;20576;-87
2023/09/30 04:29:43;;;;;;;0.30;0.20;;;;;;;11.92;100.00;97454.38;4991415;28;20463;-86
2023/09/30 04:32:29;;;;;;;0.28;0.20;;;;;;;11.83;100.00;97452.25;4990842;28;20049;-85
2023/09/30 04:35:15;;;;;;;0.10;0.10;;;;;;;11.98;100.00;97452.59;4989642;28;21061;-86
2023/09/30 04:38:01;;;;;;;0.17;0.17;;;;;;;12.06;100.00;97471.06;4988513;28;20131;-85
2023/09/30 04:40:51;;;;;;;0.10;0.10;;;;;;;12.11;100.00;97467.66;4974875;28;20489;-86
2023/09/30 04:43:39;;;;;;;0.10;0.10;;;;;;;12.12;100.00;97461.25;4988500;28;20041;-86
2023/09/30 04:46:25;;;;;;;0.17;0.15;;;;;;;12.07;100.00;97461.97;4990265;28;20105;-87
2023/09/30 04:49:14;;;;;;;0.10;0.10;;;;;;;12.05;100.00;97473.94;4986837;28;20078;-88
2023/09/30 04:52:00;;;;;;;0.40;0.30;;;;;;;12.07;100.00;97477.25;4991647;28;20038;-85
2023/09/30 04:54:46;;;;;;;0.20;0.20;;;;;;;11.95;100.00;97472.66;4986284;28;20049;-87
2023/09/30 04:57:32;;;;;;;0.10;0.10;;;;;;;11.99;100.00;97463.13;4987897;28;20045;-87
2023/09/30 05:00:25;;;;;;;0.22;0.20;;;;;;;11.80;100.00;97461.56;4989161;28;20056;-86
2023/09/30 05:03:11;;;;;;;0.38;0.28;;;;;;;11.85;100.00;97472.44;4989482;28;20038;-89
2023/09/30 05:05:58;;;;;;;0.40;0.20;;;;;;;11.95;100.00;97479.91;4990004;28;20080;-89
2023/09/30 05:08:43;;;;;;;0.20;0.10;;;;;;;11.93;100.00;97485.50;4991979;28;20607;-89
2023/09/30 05:11:29;;;;;;;0.10;0.10;;;;;;;12.01;100.00;97499.63;4990383;28;20077;-85
2023/09/30 05:14:16;;;;;;;0.10;0.10;;;;;;;12.05;100.00;97498.09;4989248;28;20586;-85
2023/09/30 05:17:04;;;;;;;0.20;0.20;;;;;;;11.75;100.00;97490.94;4988081;28;20042;-89
2023/09/30 05:19:50;;;;;;;0.20;0.20;;;;;;;11.58;100.00;97501.50;4989270;28;20050;-86
2023/09/30 05:22:36;;;;;;;0.52;0.32;;;;;;;11.63;100.00;97493.59;4991114;28;20434;-87
2023/09/30 05:25:26;;;;;;;0.32;0.30;;;;;;;11.56;100.00;97486.69;4986803;28;20038;-87
2023/09/30 05:28:13;;;;;;;0.50;0.30;;;;;;;11.47;100.00;97483.53;4974256;28;20061;-86
2023/09/30 05:30:59;;;;;;;0.47;0.30;;;;;;;11.31;100.00;97493.03;4989882;28;20492;-86
2023/09/30 05:33:45;;;;;;;1.05;0.50;;;;;;;10.95;100.00;97501.13;4974216;28;20784;-87
2023/09/30 05:36:30;;;;;;;0.38;0.22;;;;;;;10.82;100.00;97499.47;4991288;28;20421;-87
2023/09/30 05:39:19;;;;;;;0.40;0.30;;;;;;;10.95;100.00;97501.94;4986627;28;20042;-85
2023/09/30 05:42:06;;;;;;;0.85;0.43;;;;;;;10.56;100.00;97512.09;4989635;28;20042;-85
2023/09/30 05:44:53;;;;;;;0.55;0.30;;;;;;;10.41;100.00;97513.47;4988705;28;20116;-85
2023/09/30 05:47:39;;;;;;;0.70;0.40;;;;;;;10.41;100.00;97521.50;4992660;28;20038;-87
2023/09/30 05:50:26;;;;;;;0.47;0.28;;;;;;;10.35;100.00;97528.59;4992922;28;20042;-87
2023/09/30 05:53:12;;;;;;;0.45;0.30;;;;;;;10.52;100.00;97529.63;4988858;28;20128;-87
2023/09/30 05:55:59;;;;;;;0.57;0.32;;;;;;;10.52;100.00;97526.16;4994706;28;20046;-87
2023/09/30 05:58:45;;;;;;;0.22;0.20;;;;;;;10.89;100.00;97513.56;4993039;28;20045;-88
2023/09/30 06:01:35;;;;;;;0.10;0.10;;;;;;;10.90;100.00;97528.59;4994303;28;20046;-86
2023/09/30 06:04:21;;;;;;;0.70;0.30;;;;;;;10.94;100.00;97516.38;4991964;28;20087;-88
2023/09/30 06:07:11;;;;;;;0.65;0.35;;;;;;;10.40;100.00;97522.56;4993475;28;20040;-86
2023/09/30 06:09:57;;;;;;;0.47;0.30;;;;;;;9.94;100.00;97534.44;4994639;28;20041;-84
2023/09/30 06:12:42;;;;;;;0.22;0.20;;;;;;;10.01;100.00;97544.06;4994964;28;20694;-85
2023/09/30 06:15:28;;;;;;;0.20;0.20;;;;;;;10.29;100.00;97537.50;4997343;28;20087;-87
2023/09/30 06:18:15;;;;;;;0.47;0.30;;;;;;;10.36;100.00;97532.91;4995222;28;20116;-86
2023/09/30 06:21:00;;;;;;;0.15;0.15;;;;;;;10.31;100.00;97528.19;4995178;28;20046;-87
2023/09/30 06:23:53;;;;;;;0.20;0.20;;;;;;;10.23;100.00;97524.97;4994147;28;20042;-87
2023/09/30 06:26:39;;;;;;;0.30;0.20;;;;;;;10.30;100.00;97536.44;4994676;28;20246;-90
2023/09/30 06:29:26;;;;;;;0.10;0.10;;;;;;;10.42;100.00;97537.34;4994627;28;20042;-87
2023/09/30 06:32:13;;;;;;;0.20;0.20;;;;;;;10.64;100.00;97529.72;4992272;28;20065;-83
2023/09/30 06:34:58;;;;;;;0.20;0.10;;;;;;;10.66;100.00;97541.03;4994101;28;20050;-86
2023/09/30 06:37:45;;;;;;;0.17;0.17;;;;;;;10.68;100.00;97538.94;4997276;28;20135;-85
2023/09/30 06:40:31;;;;;;;0.10;0.10;;;;;;;10.80;100.00;97537.13;4994282;28;20048;-86
2023/09/30 06:43:17;;;;;;;0.08;0.08;;;;;;;10.89;100.00;97532.28;4994369;28;20636;-86
2023/09/30 06:46:09;;;;;;;0.00;0.00;;;;;;;10.59;100.00;97538.41;4993977;28;20042;-84
2023/09/30 06:48:54;;;;;;;0.10;0.10;;;;;;;10.41;100.00;97533.03;4992800;28;20841;-86
2023/09/30 06:51:40;;;;;;;0.10;0.10;;;;;;;10.36;100.00;97538.25;4994254;28;20077;-84
2023/09/30 06:54:26;;;;;;;0.10;0.10;;;;;;;10.37;100.00;97539.06;4992572;28;20097;-84
2023/09/30 06:57:12;;;;;;;0.10;0.10;;;;;;;10.18;100.00;97541.66;4993330;28;20582;-85
2023/09/30 06:59:58;;;;;;;0.10;0.10;;;;;;;10.26;100.00;97538.72;4980161;28;20096;-86
2023/09/30 07:02:44;;;;;;;0.10;0.10;;;;;;;10.39;100.00;97543.16;4995680;28;20054;-85
2023/09/30 07:05:30;;;;;;;0.10;0.10;;;;;;;10.41;100.00;97546.41;4994800;28;20042;-86
2023/09/30 07:08:17;;;;;;;0.10;0.10;;;;;;;10.32;100.00;97561.13;5007428;28;20120;-85
2023/09/30 07:11:05;;;;;;;0.10;0.10;;;;;;;10.37;100.00;97550.59;4999286;28;20034;-86
2023/09/30 07:13:50;;;;;;;0.10;0.10;;;;;;;10.52;100.00;97550.22;4994732;28;20049;-85
2023/09/30 07:16:36;;;;;;;0.10;0.10;;;;;;;10.59;100.00;97546.44;4994019;28;20049;-87
2023/09/30 07:19:22;;;;;;;0.10;0.10;;;;;;;10.58;100.00;97541.28;4992315;28;20640;-87
2023/09/30 07:22:08;;;;;;;0.10;0.10;;;;;;;10.64;100.00;97544.94;4991172;28;20536;-88
2023/09/30 07:24:54;;;;;;;0.10;0.10;;;;;;;10.73;100.00;97536.41;4976551;28;20045;-85
2023/09/30 07:27:40;;;;;;;0.10;0.10;;;;;;;10.93;100.00;97546.88;4991311;28;20485;-85
2023/09/30 07:30:26;;;;;;;0.10;0.10;;;;;;;11.09;100.00;97548.13;4989510;28;20147;-86
2023/09/30 07:33:12;;;;;;;0.10;0.10;;;;;;;11.22;100.00;97558.69;4989353;28;20038;-86
2023/09/30 07:35:58;;;;;;;0.20;0.20;;;;;;;11.42;100.00;97555.75;4992489;28;20128;-84
2023/09/30 07:38:44;;;;;;;0.50;0.30;;;;;;;11.67;100.00;97552.91;4988868;28;20041;-87
2023/09/30 07:41:36;;;;;;;0.20;0.20;;;;;;;11.92;100.00;97548.25;4989538;28;20046;-86
2023/09/30 07:44:22;;;;;;;0.20;0.20;;;;;;;12.10;100.00;97551.88;4989175;28;20069;-86
2023/09/30 07:47:11;;;;;;;0.10;0.10;;;;;;;12.25;100.00;97562.97;4989578;28;20033;-86
2023/09/30 07:49:57;;;;;;;0.10;0.10;;;;;;;12.38;100.00;97576.19;4987595;28;20126;-85
2023/09/30 07:52:43;;;;;;;0.13;0.13;;;;;;;12.54;100.00;97588.09;4990680;28;20053;-85
2023/09/30 07:55:29;;;;;;;0.10;0.10;;;;;;;12.61;100.00;97580.75;4986861;28;20084;-85
2023/09/30 07:58:15;;;;;;;0.20;0.20;;;;;;;12.79;100.00;97577.91;4989633;28;20594;-86
2023/09/30 08:01:03;;;;;;;0.13;0.13;;;;;;;12.63;100.00;97569.75;4988134;28;20061;-86
2023/09/30 08:03:48;;;;;;;0.10;0.10;;;;;;;12.55;100.00;97577.13;4991213;28;20038;-85
2023/09/30 08:06:34;;;;;;;0.10;0.10;;;;;;;12.44;100.00;97583.28;4991660;28;20088;-86
2023/09/30 08:09:21;;;;;;;0.10;0.10;;;;;;;12.47;100.00;97582.84;4988275;28;20488;-86
2023/09/30 08:12:08;;;;;;;0.10;0.10;;;;;;;12.51;100.00;97586.69;4989816;28;20081;-87
2023/09/30 08:14:54;;;;;;;0.10;0.10;;;;;;;12.52;100.00;97588.31;4990502;28;20858;-85
2023/09/30 08:17:40;;;;;;;0.10;0.10;;;;;;;12.42;100.00;97596.13;4988900;28;20093;-86
2023/09/30 08:20:26;;;;;;;0.10;0.10;;;;;;;12.41;100.00;97588.31;4989938;28;20147;-87
2023/09/30 08:23:12;;;;;;;0.10;0.10;;;;;;;12.31;100.00;97596.94;4991037;28;20070;-86
2023/09/30 08:25:59;;;;;;;0.10;0.10;;;;;;;12.30;100.00;97579.22;4989388;28;20046;-85
2023/09/30 08:28:47;;;;;;;0.10;0.10;;;;;;;12.30;100.00;97583.78;4990089;28;20050;-87
2023/09/30 08:31:34;;;;;;;0.10;0.10;;;;;;;12.32;100.00;97590.53;4974470;28;20049;-87
2023/09/30 08:34:21;;;;;;;0.10;0.10;;;;;;;12.11;100.00;97574.97;4990564;28;20044;-88
2023/09/30 08:37:06;;;;;;;0.10;0.10;;;;;;;12.19;100.00;97578.13;4988449;28;20041;-88
2023/09/30 08:39:52;;;;;;;0.10;0.10;;;;;;;12.15;100.00;97598.44;4990888;28;20038;-87
2023/09/30 08:42:39;;;;;;;0.10;0.10;;;;;;;12.28;100.00;97602.75;4990753;28;20620;-87
2023/09/30 08:45:29;;;;;;;0.10;0.10;;;;;;;12.48;100.00;97615.88;4972293;28;20597;-87
2023/09/30 08:48:17;;;;;;;0.10;0.10;;;;;;;12.55;100.00;97620.06;4989476;28;20064;-87
2023/09/30 08:51:03;;;;;;;0.10;0.10;;;;;;;12.62;100.00;97619.16;4989729;28;20065;-88
2023/09/30 08:53:52;;;;;;;0.10;0.10;;;;;;;12.89;100.00;97625.66;4987943;28;20115;-87
2023/09/30 08:56:43;;;;;;;0.10;0.10;;;;;;;13.04;100.00;97628.69;4988612;28;20593;-87
2023/09/30 08:59:30;;;;;;;0.10;0.10;;;;;;;13.10;100.00;97635.00;4989611;28;20057;-87
2023/09/30 09:02:16;;;;;;;0.10;0.10;;;;;;;13.26;100.00;97623.56;4988343;28;20153;-85
2023/09/30 09:05:03;;;;;;;0.10;0.10;;;;;;;13.55;100.00;97634.34;4988148;28;20041;-85
2023/09/30 09:07:50;;;;;;;0.10;0.10;;;;;;;13.66;100.00;97634.31;4990119;28;20045;-86
2023/09/30 09:10:53;;;;;;;0.10;0.10;;;;;;;14.21;100.00;97625.63;4991666;28;20080;-87
2023/09/30 09:13:49;;;;;;;0.10;0.10;;;;;;;15.08;100.00;97621.59;4986459;28;20064;-86
2023/09/30 09:16:35;;;;;;;0.10;0.10;;;;;;;15.68;100.00;97615.34;4983621;28;20050;-88
2023/09/30 09:19:21;;;;;;;0.10;0.10;;;;;;;15.63;100.00;97620.69;4987467;28;20124;-88
2023/09/30 09:22:07;;;;;;;0.10;0.10;;;;;;;16.06;100.00;97627.09;4994373;28;20045;-85
2023/09/30 09:24:53;;;;;;;0.10;0.10;;;;;;;16.60;100.00;97627.03;4991865;28;20046;-85
2023/09/30 09:27:39;;;;;;;0.10;0.10;;;;;;;16.76;100.00;97619.88;4982945;28;21045;-85
2023/09/30 09:30:26;;;;;;;0.10;0.10;;;;;;;16.97;100.00;97617.06;4973696;28;20038;-85
2023/09/30 09:33:13;;;;;;;0.10;0.10;;;;;;;17.22;100.00;97612.84;4974124;28;20046;-85
2023/09/30 09:35:59;;;;;;;0.10;0.10;;;;;;;17.70;100.00;97608.16;4973829;28;20116;-86
2023/09/30 09:38:53;;;;;;;0.00;0.00;;;;;;;17.79;100.00;97595.78;4973783;28;20496;-87
2023/09/30 09:41:54;;;;;;;0.10;0.10;;;;;;;17.45;100.00;97590.78;4974031;28;20189;-86
2023/09/30 09:44:41;;;;;;;0.10;0.10;;;;;;;18.22;100.00;97572.84;4973886;28;20042;-87
2023/09/30 09:47:29;;;;;;;0.10;0.10;;;;;;;18.55;100.00;97565.22;4972685;28;20500;-87
2023/09/30 09:50:15;;;;;;;0.10;0.10;;;;;;;18.92;100.00;97570.34;4957084;28;20042;-87
2023/09/30 09:53:02;;;;;;;0.10;0.10;;;;;;;19.07;100.00;97580.34;4974749;28;20038;-87
2023/09/30 09:55:49;;;;;;;0.13;0.13;;;;;;;19.34;100.00;97577.25;4958063;28;20071;-87
2023/09/30 09:58:38;;;;;;;0.10;0.10;;;;;;;19.23;100.00;97572.97;4974471;28;20100;-87
2023/09/30 10:01:27;;;;;;;0.20;0.20;;;;;;;19.73;100.00;97570.03;4974942;28;20557;-87
2023/09/30 10:04:15;;;;;;;0.20;0.20;;;;;;;20.09;99.54;97572.53;4973619;28;20042;-86
2023/09/30 10:07:01;;;;;;;0.10;0.10;;;;;;;21.96;95.87;97576.31;4974774;28;20046;-87
2023/09/30 10:09:50;;;;;;;0.30;0.30;;;;;;;23.54;71.57;97570.81;4974495;28;20045;-87
2023/09/30 10:12:38;;;;;;;0.32;0.20;;;;;;;24.52;63.61;97578.50;4975013;28;20055;-87
2023/09/30 10:15:27;;;;;;;0.10;0.10;;;;;;;26.91;47.83;97588.72;4974155;28;20049;-87
2023/09/30 10:18:13;;;;;;;0.10;0.10;;;;;;;28.63;39.13;97582.56;4960338;28;20038;-87
2023/09/30 10:21:08;;;;;;;0.10;0.10;;;;;;;29.78;35.10;97585.28;4974827;28;20050;-87
2023/09/30 10:24:22;;;;;;;0.20;0.20;;;;;;;30.36;33.58;97588.66;4984392;28;20078;-87
2023/09/30 10:27:37;;;;;;;0.10;0.10;;;;;;;30.15;33.85;97575.03;4998718;28;20061;-86
2023/09/30 10:30:23;;;;;;;0.10;0.10;;;;;;;30.95;33.61;97563.06;4998796;28;20701;-88
2023/09/30 10:33:09;;;;;;;0.13;0.13;;;;;;;31.98;32.01;97564.00;4979252;28;20034;-88
2023/09/30 10:35:55;;;;;;;0.10;0.10;;;;;;;32.34;29.22;97568.38;4981974;28;20046;-88
2023/09/30 10:38:41;;;;;;;0.10;0.10;;;;;;;32.11;29.62;97571.03;4993620;28;20894;-87
2023/09/30 10:41:51;;;;;;;0.10;0.10;;;;;;;31.14;28.44;97587.25;4991898;28;20993;-86
2023/09/30 10:44:38;;;;;;;0.05;0.05;;;;;;;29.13;35.89;97587.91;4990904;28;20046;-86
2023/09/30 10:47:27;;;;;;;0.00;0.00;;;;;;;25.17;47.75;97600.63;4976200;28;20047;-87
2023/09/30 10:51:01;;;;;;;0.10;0.10;;;;;;;27.39;40.44;97597.78;4993225;28;20873;-88
2023/09/30 10:53:51;;;;;;;0.10;0.10;;;;;;;26.52;48.94;97608.19;4992420;28;20637;-87
2023/09/30 10:56:37;;;;;;;0.20;0.20;;;;;;;28.37;39.63;97590.28;4991655;28;20052;-85
2023/09/30 10:59:24;;;;;;;0.10;0.10;;;;;;;31.72;33.12;97593.03;4989043;28;20049;-87
2023/09/30 11:02:20;;;;;;;0.10;0.10;;;;;;;33.45;26.44;97585.91;4990949;28;20058;-87
2023/09/30 11:05:09;;;;;;;0.10;0.10;;;;;;;32.37;27.06;97578.72;4991376;28;20830;-86
2023/09/30 11:07:59;;;;;;;0.10;0.10;;;;;;;32.82;27.20;97582.75;4992427;28;20046;-88
2023/09/30 11:10:50;;;;;;;0.10;0.10;;;;;;;34.78;27.40;97577.47;4989420;28;20049;-87
2023/09/30 11:13:36;;;;;;;0.10;0.10;;;;;;;36.43;25.50;97572.84;4990015;28;20038;-87
2023/09/30 11:16:22;;;;;;;0.10;0.10;;;;;;;35.96;26.91;97568.22;4985010;28;20084;-88
2023/09/30 11:19:09;;;;;;;0.10;0.10;;;;;;;36.95;25.92;97570.63;4989870;28;20638;-88
2023/09/30 11:21:55;;;;;;;0.00;0.00;;;;;;;32.60;28.03;97584.31;4991479;28;20064;-87
2023/09/30 11:24:41;;;;;;;0.00;0.00;;;;;;;29.63;35.27;97586.81;4991086;28;20089;-87
2023/09/30 11:27:31;;;;;;;0.00;0.00;;;;;;;27.68;40.79;97605.28;4989164;28;20078;-88
2023/09/30 11:30:17;;;;;;;0.10;0.10;;;;;;;28.99;38.97;97606.69;4988239;28;20045;-86
2023/09/30 11:33:04;;;;;;;0.10;0.10;;;;;;;32.56;30.55;97598.09;4992796;28;20523;-87
2023/09/30 11:36:00;;;;;;;0.10;0.10;;;;;;;35.55;25.39;97601.69;4987007;28;21022;-88
2023/09/30 11:38:47;;;;;;;0.03;0.03;;;;;;;36.81;24.34;97595.66;4989979;28;20042;-88
2023/09/30 11:41:38;;;;;;;0.10;0.10;;;;;;;37.04;21.96;97578.59;4989958;28;20077;-88
2023/09/30 11:44:26;;;;;;;0.10;0.10;;;;;;;36.59;24.39;97572.53;4990355;28;20859;-88
2023/09/30 11:47:11;;;;;;;0.00;0.00;;;;;;;34.08;25.59;97567.84;4992532;28;20707;-88
2023/09/30 11:49:57;;;;;;;0.00;0.00;;;;;;;29.83;30.68;97576.00;4988773;28;20096;-87
2023/09/30 11:52:46;;;;;;;0.00;0.00;;;;;;;28.24;34.50;97567.34;4990870;28;20996;-86
2023/09/30 11:55:32;;;;;;;0.00;0.00;;;;;;;29.26;34.15;97571.38;4988362;28;20057;-86
2023/09/30 11:58:19;;;;;;;0.00;0.00;;;;;;;26.52;36.63;97565.06;4992346;28;20042;-88
2023/09/30 12:01:06;;;;;;;0.00;0.00;;;;;;;28.82;35.62;97558.09;4988775;28;20631;-87
2023/09/30 12:03:54;;;;;;;0.00;0.00;;;;;;;27.14;40.53;97555.56;4987623;28;20061;-86
2023/09/30 12:06:40;;;;;;;0.00;0.00;;;;;;;25.94;45.62;97565.56;4994814;28;20418;-87
2023/09/30 12:09:26;;;;;;;0.10;0.10;;;;;;;25.35;49.71;97562.34;4976783;28;20042;-86
2023/09/30 12:12:14;;;;;;;0.00;0.00;;;;;;;24.84;53.92;97564.53;4989096;28;20065;-85
2023/09/30 12:15:00;;;;;;;0.10;0.10;;;;;;;23.92;55.94;97560.47;4990272;28;20138;-86
2023/09/30 12:17:46;;;;;;;0.10;0.10;;;;;;;25.97;45.92;97573.94;4976321;28;20153;-85
2023/09/30 12:20:32;;;;;;;0.00;0.00;;;;;;;27.26;38.11;97557.63;4990050;28;20049;-86
2023/09/30 12:23:18;;;;;;;0.10;0.10;;;;;;;25.75;41.84;97565.84;4990467;28;20045;-85
2023/09/30 12:26:05;;;;;;;0.20;0.20;;;;;;;30.40;32.59;97561.13;4990036;28;20157;-85
2023/09/30 12:28:51;;;;;;;0.00;0.00;;;;;;;29.84;31.70;97561.03;4990398;28;20107;-85
2023/09/30 12:31:36;;;;;;;0.10;0.10;;;;;;;31.76;28.88;97560.75;4975161;28;20037;-86
2023/09/30 12:34:26;;;;;;;0.20;0.20;;;;;;;35.63;25.98;97564.38;4988964;28;20520;-86
2023/09/30 12:37:13;;;;;;;0.10;0.10;;;;;;;34.96;25.05;97563.78;4988694;28;20153;-85
2023/09/30 12:39:59;;;;;;;0.00;0.00;;;;;;;30.89;29.79;97575.53;4990156;28;20088;-85
2023/09/30 12:42:45;;;;;;;0.10;0.10;;;;;;;33.50;27.52;97566.19;4989284;28;20104;-85
2023/09/30 12:45:30;;;;;;;0.20;0.20;;;;;;;35.83;24.79;97564.13;4992511;28;20843;-85
2023/09/30 12:48:17;;;;;;;0.10;0.10;;;;;;;36.99;23.45;97559.50;4990470;28;20037;-85
2023/09/30 12:51:06;;;;;;;0.10;0.10;;;;;;;37.53;22.79;97549.97;4989959;28;20042;-85
2023/09/30 12:53:51;;;;;;;0.10;0.10;;;;;;;37.52;23.02;97553.19;4988043;28;20053;-88
2023/09/30 12:56:37;;;;;;;0.10;0.10;;;;;;;36.33;22.06;97539.34;4989774;28;20048;-87
2023/09/30 12:59:25;;;;;;;0.10;0.10;;;;;;;36.77;22.96;97534.31;4988220;28;20129;-87